Time;durP1;ratioP1;P1;durP2;ratioP2;P2;SDS_P1;SDS_P2;PMS_P1;PMS_P2;Temp;Humidity;BMP_temperature;BMP_pressure;BME280_temperature;BME280_humidity;BME280_pressure;Samples;Min_cycle;Max_cycle;Signal;HPM_P1;HPM_P2
2022/12/13 00:00:18;;;;;;;1.25;1.20;;;-0.80;99.90;;;;;;5029983;28;20056;-64
2022/12/13 00:02:44;;;;;;;2.22;1.85;;;-0.80;99.90;;;;;;5028061;28;20057;-64
2022/12/13 00:05:11;;;;;;;0.32;0.32;;;-0.80;99.90;;;;;;5030027;28;20144;-64
2022/12/13 00:07:37;;;;;;;1.02;1.02;;;-0.70;99.90;;;;;;5029365;28;20048;-64
2022/12/13 00:10:04;;;;;;;0.63;0.63;;;-0.70;99.90;;;;;;5028785;28;20136;-64
2022/12/13 00:12:29;;;;;;;2.55;1.20;;;-0.60;99.90;;;;;;5028444;28;20120;-64
2022/12/13 00:14:55;;;;;;;0.55;0.55;;;-0.60;99.90;;;;;;5028967;28;20471;-64
2022/12/13 00:17:20;;;;;;;2.35;1.33;;;-0.70;99.90;;;;;;5030285;28;20041;-64
2022/12/13 00:19:47;;;;;;;4.03;3.65;;;-0.80;99.90;;;;;;5027908;28;20116;-64
2022/12/13 00:22:13;;;;;;;0.68;0.68;;;-0.90;99.90;;;;;;5027247;28;20029;-64
2022/12/13 00:24:39;;;;;;;0.90;0.90;;;-0.80;99.90;;;;;;5027902;28;20200;-64
2022/12/13 00:27:05;;;;;;;1.65;1.63;;;-0.90;99.90;;;;;;5029392;28;20525;-64
2022/12/13 00:29:31;;;;;;;2.30;2.17;;;-1.00;99.90;;;;;;5025828;28;20057;-64
2022/12/13 00:31:56;;;;;;;2.17;2.08;;;-1.00;99.90;;;;;;5031067;28;20069;-65
2022/12/13 00:34:23;;;;;;;1.58;1.48;;;-1.00;99.90;;;;;;5029936;28;20085;-65
2022/12/13 00:36:48;;;;;;;0.30;0.30;;;-1.00;99.90;;;;;;5042354;28;20041;-64
2022/12/13 00:39:15;;;;;;;1.38;1.30;;;-1.10;99.90;;;;;;5029560;28;20037;-64
2022/12/13 00:41:42;;;;;;;0.60;0.60;;;-1.10;99.90;;;;;;5028794;28;20128;-64
2022/12/13 00:44:09;;;;;;;2.80;2.58;;;-1.10;99.90;;;;;;5029829;28;20517;-64
2022/12/13 00:46:34;;;;;;;1.98;1.83;;;-1.00;99.90;;;;;;5030894;28;20045;-64
2022/12/13 00:49:00;;;;;;;0.68;0.68;;;-1.00;99.90;;;;;;5028063;28;20543;-64
2022/12/13 00:51:28;;;;;;;0.40;0.40;;;-1.00;99.90;;;;;;5029604;28;20514;-64
2022/12/13 00:53:54;;;;;;;1.90;1.30;;;-1.10;99.90;;;;;;5029907;28;20049;-64
2022/12/13 00:56:24;;;;;;;0.22;0.22;;;-1.00;99.90;;;;;;5029452;28;20044;-64
2022/12/13 00:58:50;;;;;;;1.70;1.60;;;-1.00;99.90;;;;;;5030287;28;20575;-63
2022/12/13 01:01:17;;;;;;;2.05;1.83;;;-1.10;99.90;;;;;;5030231;28;20102;-64
2022/12/13 01:03:43;;;;;;;0.50;0.50;;;-1.10;99.90;;;;;;5028548;28;20053;-64
2022/12/13 01:06:19;;;;;;;0.20;0.20;;;-1.10;99.90;;;;;;5030189;28;20042;-64
2022/12/13 01:08:45;;;;;;;7.95;4.00;;;-1.10;99.90;;;;;;5029748;28;20053;-64
2022/12/13 01:11:11;;;;;;;1.05;0.95;;;-1.10;99.90;;;;;;5028289;28;20518;-64
2022/12/13 01:13:37;;;;;;;0.30;0.30;;;-1.20;99.90;;;;;;5028390;28;20033;-64
2022/12/13 01:16:06;;;;;;;4.28;3.97;;;-1.20;99.90;;;;;;5030331;28;20045;-64
2022/12/13 01:18:32;;;;;;;0.90;0.90;;;-1.20;99.90;;;;;;5027713;28;20515;-64
2022/12/13 01:21:02;;;;;;;0.50;0.50;;;-1.20;99.90;;;;;;5029814;28;20045;-64
2022/12/13 01:23:28;;;;;;;0.28;0.28;;;-1.20;99.90;;;;;;5029481;28;20041;-64
2022/12/13 01:25:54;;;;;;;1.20;1.20;;;-1.20;99.90;;;;;;5028075;28;20054;-64
2022/12/13 01:28:21;;;;;;;0.47;0.47;;;-1.30;99.90;;;;;;5028889;28;20436;-64
2022/12/13 01:31:00;;;;;;;8.88;1.33;;;-1.30;99.90;;;;;;5029655;28;20049;-64
2022/12/13 01:33:26;;;;;;;1.20;1.20;;;-1.30;99.90;;;;;;5028656;28;20049;-64
2022/12/13 01:35:52;;;;;;;0.30;0.30;;;-1.30;99.90;;;;;;5029905;28;20095;-63
2022/12/13 01:38:18;;;;;;;0.20;0.20;;;-1.30;99.90;;;;;;5029907;28;20057;-64
2022/12/13 01:40:56;;;;;;;1.33;1.23;;;-1.30;99.90;;;;;;5028896;28;20045;-63
2022/12/13 01:43:27;;;;;;;0.28;0.28;;;-1.30;99.90;;;;;;5027931;28;20572;-63
2022/12/13 01:45:52;;;;;;;0.50;0.50;;;-1.30;99.90;;;;;;5028016;28;20152;-63
2022/12/13 01:48:27;;;;;;;0.50;0.50;;;-1.30;99.90;;;;;;5027306;28;20120;-63
2022/12/13 01:50:58;;;;;;;0.43;0.43;;;-1.30;99.90;;;;;;5022279;28;20493;-63
2022/12/13 01:53:28;;;;;;;0.98;0.98;;;-1.30;99.90;;;;;;5028198;28;20048;-63
2022/12/13 01:55:56;;;;;;;0.43;0.43;;;-1.20;99.90;;;;;;5029557;28;20124;-63
2022/12/13 01:58:23;;;;;;;2.42;2.17;;;-1.20;99.90;;;;;;5028595;28;20041;-64
2022/12/13 02:00:49;;;;;;;2.25;2.13;;;-1.20;99.90;;;;;;5028854;28;20038;-63
2022/12/13 02:03:17;;;;;;;1.40;1.33;;;-1.30;99.90;;;;;;5028641;28;20053;-63
2022/12/13 02:06:05;;;;;;;1.58;1.45;;;-1.20;99.90;;;;;;5024175;28;20422;-64
2022/12/13 02:08:31;;;;;;;0.38;0.38;;;-1.30;99.90;;;;;;5028377;28;20400;-63
2022/12/13 02:10:58;;;;;;;0.30;0.30;;;-1.40;99.90;;;;;;5029054;28;20489;-63
2022/12/13 02:13:23;;;;;;;1.05;1.05;;;-1.40;99.90;;;;;;5027770;28;20415;-63
2022/12/13 02:16:21;;;;;;;0.20;0.20;;;-1.40;99.90;;;;;;5026165;28;20064;-63
2022/12/13 02:19:11;;;;;;;0.52;0.52;;;-1.40;99.90;;;;;;5025927;28;20060;-63
2022/12/13 02:21:42;;;;;;;2.38;1.40;;;-1.40;99.90;;;;;;5027038;28;20052;-63
2022/12/13 02:24:26;;;;;;;0.50;0.50;;;-1.40;99.90;;;;;;5028887;28;20053;-63
2022/12/13 02:27:06;;;;;;;1.20;1.10;;;-1.50;99.90;;;;;;5027455;28;20056;-63
2022/12/13 02:29:31;;;;;;;0.10;0.10;;;-1.50;99.90;;;;;;5027976;28;20038;-63
2022/12/13 02:32:16;;;;;;;0.50;0.50;;;-1.40;99.90;;;;;;5028391;28;20503;-64
2022/12/13 02:35:10;;;;;;;0.90;0.90;;;-1.40;99.90;;;;;;5027509;28;20171;-63
2022/12/13 02:38:17;;;;;;;1.65;1.10;;;-1.30;99.90;;;;;;5027798;28;20049;-63
2022/12/13 02:40:43;;;;;;;3.33;3.13;;;-1.20;99.90;;;;;;5017584;28;20144;-63
2022/12/13 02:43:24;;;;;;;1.80;1.13;;;-1.20;99.90;;;;;;5027386;28;20121;-63
2022/12/13 02:45:57;;;;;;;0.30;0.30;;;-1.10;99.90;;;;;;5028409;28;20061;-63
2022/12/13 02:48:28;;;;;;;2.25;2.10;;;-1.10;99.90;;;;;;5028064;28;20037;-63
2022/12/13 02:50:56;;;;;;;0.70;0.70;;;-1.10;99.90;;;;;;5026251;28;20073;-63
2022/12/13 02:53:23;;;;;;;1.17;1.17;;;-1.10;99.90;;;;;;5028314;28;20099;-63
2022/12/13 02:55:49;;;;;;;2.22;2.10;;;-1.00;99.90;;;;;;5025531;28;20051;-63
2022/12/13 02:58:18;;;;;;;5.05;1.27;;;-1.10;99.90;;;;;;5025566;28;20493;-63
2022/12/13 03:00:53;;;;;;;0.20;0.20;;;-1.10;99.90;;;;;;5026013;28;20404;-64
2022/12/13 03:03:43;;;;;;;0.40;0.40;;;-1.00;99.90;;;;;;5026147;28;20501;-63
2022/12/13 03:06:34;;;;;;;1.67;1.58;;;-1.00;99.90;;;;;;5026693;28;20095;-63
2022/12/13 03:09:19;;;;;;;1.67;1.58;;;-1.00;99.90;;;;;;5027827;28;20077;-63
2022/12/13 03:15:12;;;;;;;4.53;3.28;;;-1.30;99.90;;;;;;5026962;28;20060;-63
2022/12/13 03:18:14;;;;;;;0.88;0.88;;;-1.30;99.90;;;;;;5025794;28;20042;-63
2022/12/13 03:20:45;;;;;;;0.63;0.55;;;-1.40;99.90;;;;;;5012277;28;20080;-63
2022/12/13 03:23:11;;;;;;;0.68;0.68;;;-1.40;99.90;;;;;;5027339;28;20037;-63
2022/12/13 03:25:36;;;;;;;0.40;0.40;;;-1.50;99.90;;;;;;5025620;28;20091;-63
2022/12/13 03:28:02;;;;;;;0.32;0.32;;;-1.50;99.90;;;;;;5026836;28;20068;-63
2022/12/13 03:30:29;;;;;;;0.43;0.43;;;-1.40;99.90;;;;;;5025892;28;20542;-63
2022/12/13 03:32:54;;;;;;;0.30;0.30;;;-1.40;99.90;;;;;;5025614;28;20045;-63
2022/12/13 03:35:20;;;;;;;0.82;0.82;;;-1.40;99.90;;;;;;5027391;28;20037;-63
2022/12/13 03:37:47;;;;;;;1.77;1.67;;;-1.50;99.90;;;;;;5025590;28;20033;-63
2022/12/13 03:40:12;;;;;;;1.70;1.60;;;-1.50;99.90;;;;;;5026845;28;20045;-63
2022/12/13 03:42:38;;;;;;;4.10;3.78;;;-1.50;99.90;;;;;;5025928;28;20706;-63
2022/12/13 03:45:04;;;;;;;0.35;0.35;;;-1.50;99.90;;;;;;5017130;28;20046;-63
2022/12/13 03:47:29;;;;;;;1.58;1.50;;;-1.50;99.90;;;;;;5007535;28;20053;-63
2022/12/13 03:49:55;;;;;;;0.55;0.55;;;-1.50;99.90;;;;;;5007192;28;20049;-63
2022/12/13 03:52:21;;;;;;;0.85;0.82;;;-1.50;99.90;;;;;;5006262;28;20042;-63
2022/12/13 03:54:46;;;;;;;0.88;0.88;;;-1.50;99.90;;;;;;5007772;28;20042;-63
2022/12/13 03:57:14;;;;;;;1.27;1.27;;;-1.50;99.90;;;;;;5006756;28;20049;-63
2022/12/13 03:59:40;;;;;;;6.28;2.22;;;-1.60;99.90;;;;;;5005643;28;20053;-63
2022/12/13 04:02:05;;;;;;;1.27;1.20;;;-1.60;99.90;;;;;;5005316;28;20371;-63
2022/12/13 04:04:31;;;;;;;0.88;0.88;;;-1.50;99.90;;;;;;5007444;28;20379;-63
2022/12/13 04:06:57;;;;;;;0.85;0.85;;;-1.50;99.90;;;;;;5006400;28;20042;-63
2022/12/13 04:09:22;;;;;;;0.40;0.40;;;-1.50;99.90;;;;;;4986504;28;20103;-63
2022/12/13 04:14:32;;;;;;;0.52;0.52;;;-1.60;99.90;;;;;;5003348;28;20049;-63
2022/12/13 04:16:57;;;;;;;0.68;0.68;;;-1.50;99.90;;;;;;5010689;28;20045;-63
2022/12/13 04:19:23;;;;;;;2.33;2.22;;;-1.60;99.90;;;;;;5009999;28;20482;-63
2022/12/13 04:21:48;;;;;;;0.20;0.20;;;-1.50;99.90;;;;;;5009347;28;20042;-63
2022/12/13 04:24:15;;;;;;;0.30;0.30;;;-1.50;99.90;;;;;;5011511;28;20068;-63
2022/12/13 04:26:40;;;;;;;0.95;0.95;;;-1.50;99.90;;;;;;5009660;28;20121;-63
2022/12/13 04:29:06;;;;;;;2.40;2.30;;;-1.60;99.90;;;;;;5007833;28;20121;-63
2022/12/13 04:31:32;;;;;;;1.10;1.02;;;-1.60;99.90;;;;;;5010186;28;20054;-63
2022/12/13 04:33:57;;;;;;;5.47;2.63;;;-1.60;99.90;;;;;;5011230;28;20081;-63
2022/12/13 04:36:23;;;;;;;2.20;1.63;;;-1.60;99.90;;;;;;5009860;28;20379;-63
2022/12/13 04:38:48;;;;;;;0.35;0.35;;;-1.60;99.90;;;;;;5010684;28;20490;-63
2022/12/13 04:41:18;;;;;;;0.30;0.30;;;-1.60;99.90;;;;;;5008067;28;20030;-63
2022/12/13 04:43:48;;;;;;;3.60;3.00;;;-1.60;99.90;;;;;;5007818;28;20135;-63
2022/12/13 04:46:14;;;;;;;0.30;0.30;;;-1.60;99.90;;;;;;5027565;28;20099;-63
2022/12/13 04:48:40;;;;;;;0.73;0.73;;;-1.60;99.90;;;;;;5029898;28;20885;-63
2022/12/13 04:51:05;;;;;;;0.95;0.95;;;-1.60;99.90;;;;;;5030534;28;20049;-63
2022/12/13 04:53:31;;;;;;;0.90;0.90;;;-1.60;99.90;;;;;;5028524;28;20034;-63
2022/12/13 04:55:58;;;;;;;0.28;0.28;;;-1.60;99.90;;;;;;5029603;28;20054;-63
2022/12/13 04:58:23;;;;;;;2.38;2.17;;;-1.70;99.90;;;;;;5030661;28;20045;-63
2022/12/13 05:00:49;;;;;;;1.70;1.58;;;-1.70;99.90;;;;;;5029001;28;20041;-63
2022/12/13 05:03:15;;;;;;;0.57;0.57;;;-1.70;99.90;;;;;;5028919;28;20069;-63
2022/12/13 05:05:40;;;;;;;0.90;0.90;;;-1.60;99.90;;;;;;5029371;28;20045;-63
2022/12/13 05:08:06;;;;;;;0.50;0.50;;;-1.70;99.90;;;;;;5029336;28;20120;-63
2022/12/13 05:10:33;;;;;;;0.20;0.20;;;-1.70;99.90;;;;;;5029324;28;20124;-63
2022/12/13 05:13:00;;;;;;;0.55;0.55;;;-1.60;99.90;;;;;;5025352;28;20389;-63
2022/12/13 05:15:25;;;;;;;0.20;0.20;;;-1.60;99.90;;;;;;5029961;28;20678;-63
2022/12/13 05:17:51;;;;;;;0.82;0.82;;;-1.60;99.90;;;;;;5028482;28;20052;-63
2022/12/13 05:20:17;;;;;;;0.25;0.25;;;-1.60;99.90;;;;;;5028367;28;20041;-63
2022/12/13 05:22:43;;;;;;;0.30;0.30;;;-1.60;99.90;;;;;;5029613;28;20046;-63
2022/12/13 05:25:09;;;;;;;0.80;0.80;;;-1.60;99.90;;;;;;5028448;28;20117;-63
2022/12/13 05:27:35;;;;;;;0.50;0.50;;;-1.60;99.90;;;;;;5029781;28;20172;-63
2022/12/13 05:30:00;;;;;;;0.85;0.85;;;-1.70;99.90;;;;;;5029043;28;20511;-63
2022/12/13 05:32:26;;;;;;;0.65;0.65;;;-1.60;99.90;;;;;;5029439;28;20041;-63
2022/12/13 05:34:51;;;;;;;2.90;1.90;;;-1.60;99.90;;;;;;5028455;28;20539;-63
2022/12/13 05:37:17;;;;;;;0.30;0.30;;;-1.60;99.90;;;;;;5030123;28;20042;-63
2022/12/13 05:39:43;;;;;;;0.85;0.80;;;-1.60;99.90;;;;;;5028796;28;20084;-63
2022/12/13 05:42:08;;;;;;;2.05;1.95;;;-1.60;99.90;;;;;;5027850;28;20402;-63
2022/12/13 05:44:34;;;;;;;0.20;0.20;;;-1.60;99.90;;;;;;5029635;28;20085;-63
2022/12/13 05:47:00;;;;;;;0.25;0.25;;;-1.60;99.90;;;;;;5026077;28;20053;-63
2022/12/13 05:49:25;;;;;;;0.98;0.98;;;-1.60;99.90;;;;;;5025588;28;20053;-63
2022/12/13 05:51:51;;;;;;;3.05;2.83;;;-1.50;99.90;;;;;;5026508;28;20068;-63
2022/12/13 05:54:16;;;;;;;1.33;1.30;;;-1.50;99.90;;;;;;5029153;28;20402;-63
2022/12/13 05:56:42;;;;;;;2.13;2.05;;;-1.60;99.90;;;;;;5028232;28;20060;-63
2022/12/13 05:59:08;;;;;;;0.30;0.30;;;-1.60;99.90;;;;;;5029046;28;20413;-63
2022/12/13 06:01:33;;;;;;;0.40;0.40;;;-1.60;99.90;;;;;;5021150;28;20474;-63
2022/12/13 06:03:59;;;;;;;0.45;0.45;;;-1.60;99.90;;;;;;5025831;28;20111;-63
2022/12/13 06:06:24;;;;;;;0.25;0.25;;;-1.50;99.90;;;;;;5025060;28;20485;-63
2022/12/13 06:08:50;;;;;;;0.20;0.20;;;-1.50;99.90;;;;;;5028772;28;20046;-63
2022/12/13 06:11:16;;;;;;;0.38;0.38;;;-1.50;99.90;;;;;;5029333;28;20049;-63
2022/12/13 06:13:42;;;;;;;1.80;1.70;;;-1.50;99.90;;;;;;5028324;28;20059;-63
2022/12/13 06:16:08;;;;;;;0.47;0.47;;;-1.40;99.90;;;;;;5028330;28;20449;-63
2022/12/13 06:18:34;;;;;;;2.22;2.10;;;-1.40;99.90;;;;;;5028789;28;20049;-63
2022/12/13 06:21:05;;;;;;;4.22;2.17;;;-1.30;99.90;;;;;;5018974;28;20045;-63
2022/12/13 06:23:33;;;;;;;0.77;0.77;;;-1.30;99.90;;;;;;5019611;28;20137;-63
2022/12/13 06:26:02;;;;;;;0.63;0.63;;;-1.30;99.90;;;;;;5027055;28;20053;-63
2022/12/13 06:28:27;;;;;;;0.20;0.20;;;-1.30;99.90;;;;;;5028253;28;20486;-63
2022/12/13 06:30:53;;;;;;;0.38;0.38;;;-1.30;99.90;;;;;;5027968;28;20152;-63
2022/12/13 06:33:19;;;;;;;7.78;1.38;;;-1.20;99.90;;;;;;5027432;28;20118;-63
2022/12/13 06:35:45;;;;;;;0.73;0.73;;;-1.20;99.90;;;;;;5027800;28;20137;-63
2022/12/13 06:38:12;;;;;;;1.17;1.17;;;-1.20;99.90;;;;;;5027216;28;20045;-63
2022/12/13 06:40:38;;;;;;;1.38;1.30;;;-1.30;99.90;;;;;;5028641;28;20398;-63
2022/12/13 06:43:04;;;;;;;0.38;0.38;;;-1.30;99.90;;;;;;5043572;28;20053;-63
2022/12/13 06:45:30;;;;;;;0.90;0.90;;;-1.40;99.90;;;;;;5027502;28;20057;-63
2022/12/13 06:47:56;;;;;;;0.68;0.68;;;-1.40;99.90;;;;;;5026765;28;20054;-63
2022/12/13 06:50:21;;;;;;;1.17;0.43;;;-1.40;99.90;;;;;;5027724;28;20087;-63
2022/12/13 06:52:47;;;;;;;0.25;0.25;;;-1.40;99.90;;;;;;5026847;28;20045;-63
2022/12/13 06:55:13;;;;;;;0.40;0.40;;;-1.30;99.90;;;;;;5024833;28;20045;-63
2022/12/13 06:57:38;;;;;;;2.47;2.30;;;-1.40;99.90;;;;;;5024643;28;20053;-63
2022/12/13 07:00:05;;;;;;;0.95;0.95;;;-1.40;99.90;;;;;;5026511;28;20053;-62
2022/12/13 07:02:31;;;;;;;0.43;0.43;;;-1.40;99.90;;;;;;5005435;28;20089;-63
2022/12/13 07:04:56;;;;;;;0.73;0.73;;;-1.40;99.90;;;;;;5028526;28;20171;-63
2022/12/13 07:07:24;;;;;;;10.73;4.28;;;-1.40;99.90;;;;;;5027481;28;20125;-63
2022/12/13 07:09:49;;;;;;;1.77;1.50;;;-1.40;99.90;;;;;;5025586;28;20063;-63
2022/12/13 07:12:15;;;;;;;0.20;0.20;;;-1.40;99.90;;;;;;5024309;28;20152;-63
2022/12/13 07:14:40;;;;;;;2.63;2.40;;;-1.40;99.90;;;;;;5006925;28;20486;-63
2022/12/13 07:17:06;;;;;;;3.50;2.00;;;-1.50;99.90;;;;;;5024205;28;20036;-63
2022/12/13 07:19:32;;;;;;;0.28;0.28;;;-1.40;99.90;;;;;;5028471;28;20119;-63
2022/12/13 07:21:57;;;;;;;2.38;2.28;;;-1.50;99.90;;;;;;5026139;28;20056;-63
2022/12/13 07:24:23;;;;;;;0.40;0.40;;;-1.50;99.90;;;;;;5026260;28;20101;-63
2022/12/13 07:26:48;;;;;;;0.45;0.45;;;-1.40;99.90;;;;;;5026892;28;20461;-63
2022/12/13 07:29:14;;;;;;;0.30;0.30;;;-1.50;99.90;;;;;;5026368;28;20706;-63
2022/12/13 07:31:39;;;;;;;0.63;0.63;;;-1.40;99.90;;;;;;5021399;28;20416;-63
2022/12/13 07:34:05;;;;;;;1.23;1.23;;;-1.50;99.90;;;;;;5023795;28;20030;-63
2022/12/13 07:36:30;;;;;;;5.78;0.85;;;-1.50;99.90;;;;;;5027873;28;20053;-63
2022/12/13 07:38:57;;;;;;;0.30;0.30;;;-1.60;99.90;;;;;;5026784;28;20045;-63
2022/12/13 07:41:24;;;;;;;0.30;0.30;;;-1.50;99.90;;;;;;5027782;28;20076;-63
2022/12/13 07:43:50;;;;;;;1.30;0.82;;;-1.50;99.90;;;;;;5024514;28;20040;-63
2022/12/13 07:46:16;;;;;;;1.90;1.55;;;-1.50;99.90;;;;;;5026342;28;20053;-63
2022/12/13 07:48:41;;;;;;;0.60;0.60;;;-1.40;99.90;;;;;;5028021;28;20873;-64
2022/12/13 07:51:12;;;;;;;0.43;0.43;;;-1.50;99.90;;;;;;5025701;28;20092;-63
2022/12/13 07:53:39;;;;;;;2.05;0.88;;;-1.50;99.90;;;;;;5013488;28;20685;-63
2022/12/13 07:56:06;;;;;;;0.52;0.52;;;-1.40;99.90;;;;;;5026969;28;20083;-63
2022/12/13 07:58:32;;;;;;;1.10;0.85;;;-1.40;99.90;;;;;;5028889;28;20444;-63
2022/12/13 08:01:00;;;;;;;0.35;0.35;;;-1.30;99.90;;;;;;5029774;28;20053;-63
2022/12/13 08:03:26;;;;;;;0.75;0.75;;;-1.30;99.90;;;;;;5030128;28;20581;-63
2022/12/13 08:06:03;;;;;;;0.40;0.40;;;-1.40;99.90;;;;;;5025906;28;20132;-63
2022/12/13 08:08:29;;;;;;;1.10;1.10;;;-1.30;99.90;;;;;;5028755;28;20041;-64
2022/12/13 08:10:58;;;;;;;0.30;0.30;;;-1.30;99.90;;;;;;5027897;28;20079;-63
2022/12/13 08:13:24;;;;;;;0.22;0.22;;;-1.30;99.90;;;;;;5028713;28;20397;-63
2022/12/13 08:15:50;;;;;;;1.10;1.10;;;-1.20;99.90;;;;;;5025249;28;20095;-63
2022/12/13 08:18:15;;;;;;;4.72;2.85;;;-1.20;99.90;;;;;;5030304;28;20096;-63
2022/12/13 08:20:41;;;;;;;0.95;0.95;;;-1.20;99.90;;;;;;5029232;28;20092;-63
2022/12/13 08:23:06;;;;;;;0.20;0.20;;;-1.20;99.90;;;;;;5028091;28;20580;-63
2022/12/13 08:25:32;;;;;;;1.70;1.60;;;-1.20;99.90;;;;;;5026886;28;20080;-63
2022/12/13 08:27:57;;;;;;;0.40;0.40;;;-1.20;99.90;;;;;;5029295;28;20037;-63
2022/12/13 08:30:23;;;;;;;2.63;2.35;;;-1.10;99.90;;;;;;5028814;28;20041;-64
2022/12/13 08:32:49;;;;;;;0.30;0.30;;;-1.10;99.90;;;;;;5030576;28;20064;-63
2022/12/13 08:35:15;;;;;;;3.13;2.25;;;-1.20;99.90;;;;;;5028707;28;20040;-63
2022/12/13 08:37:40;;;;;;;0.30;0.30;;;-1.10;99.90;;;;;;5031028;28;20045;-63
2022/12/13 08:40:07;;;;;;;0.35;0.35;;;-1.00;99.90;;;;;;5029381;28;20033;-63
2022/12/13 08:42:32;;;;;;;0.28;0.28;;;-1.00;99.90;;;;;;5028368;28;20482;-63
2022/12/13 08:44:58;;;;;;;0.32;0.32;;;-1.10;99.90;;;;;;5030451;28;20050;-63
2022/12/13 08:47:25;;;;;;;0.47;0.47;;;-1.00;99.90;;;;;;5028017;28;20053;-63
2022/12/13 08:49:57;;;;;;;0.77;0.77;;;-0.90;99.90;;;;;;5029916;28;20048;-63
2022/12/13 08:52:23;;;;;;;0.22;0.22;;;-0.90;99.90;;;;;;5030182;28;20374;-63
2022/12/13 08:54:49;;;;;;;0.73;0.73;;;-0.80;99.90;;;;;;5024573;28;20033;-63
2022/12/13 08:57:14;;;;;;;0.82;0.80;;;-0.80;99.90;;;;;;5030680;28;20167;-63
2022/12/13 08:59:40;;;;;;;0.40;0.40;;;-0.80;99.90;;;;;;5029680;28;20546;-63
2022/12/13 09:02:05;;;;;;;1.33;1.23;;;-0.70;99.90;;;;;;5027467;28;20052;-63
2022/12/13 09:04:31;;;;;;;0.70;0.70;;;-0.70;99.90;;;;;;5029285;28;20038;-63
2022/12/13 09:06:56;;;;;;;0.40;0.40;;;-0.60;99.90;;;;;;5027965;28;20045;-63
2022/12/13 09:09:26;;;;;;;0.73;0.73;;;-0.60;99.90;;;;;;5027311;28;20106;-63
2022/12/13 09:11:51;;;;;;;0.95;0.95;;;-0.60;99.90;;;;;;5030311;28;20048;-63
2022/12/13 09:14:17;;;;;;;5.72;3.15;;;-0.60;99.90;;;;;;5029574;28;20037;-63
2022/12/13 09:16:42;;;;;;;6.60;3.83;;;-0.60;99.90;;;;;;5028779;28;20092;-63
2022/12/13 09:19:08;;;;;;;0.20;0.20;;;-0.50;99.90;;;;;;5027160;28;20664;-63
2022/12/13 09:21:34;;;;;;;0.77;0.77;;;-0.40;99.90;;;;;;5029256;28;20040;-63
2022/12/13 09:24:00;;;;;;;2.53;1.00;;;-0.40;99.90;;;;;;5026991;28;20045;-63
2022/12/13 09:26:25;;;;;;;0.77;0.77;;;-0.40;99.90;;;;;;5030152;28;20120;-63
2022/12/13 09:28:51;;;;;;;1.65;1.55;;;-0.40;99.90;;;;;;5028544;28;20048;-63
2022/12/13 09:31:18;;;;;;;0.57;0.57;;;-0.40;99.90;;;;;;5027785;28;20485;-63
2022/12/13 09:33:45;;;;;;;0.50;0.50;;;-0.30;99.90;;;;;;5028074;28;20048;-63
2022/12/13 09:36:14;;;;;;;0.82;0.82;;;-0.30;99.90;;;;;;5029496;28;20053;-63
2022/12/13 09:38:40;;;;;;;0.52;0.52;;;-0.30;99.90;;;;;;5028500;28;20048;-63
2022/12/13 09:41:25;;;;;;;1.58;1.48;;;-0.30;99.90;;;;;;5029504;28;20033;-63
2022/12/13 09:44:10;;;;;;;0.85;0.85;;;-0.20;99.90;;;;;;5028972;28;20041;-63
2022/12/13 09:46:40;;;;;;;0.65;0.65;;;-0.20;99.90;;;;;;5029624;28;20588;-63
2022/12/13 09:49:30;;;;;;;2.55;1.73;;;-0.10;99.90;;;;;;5027432;28;20116;-63
2022/12/13 09:51:59;;;;;;;0.70;0.70;;;-0.10;99.90;;;;;;5027432;28;20061;-63
2022/12/13 09:54:25;;;;;;;3.05;0.82;;;-0.10;99.90;;;;;;5028554;28;20049;-63
2022/12/13 09:56:52;;;;;;;0.50;0.50;;;-0.10;99.90;;;;;;5027050;28;20056;-63
2022/12/13 09:59:25;;;;;;;0.93;0.93;;;0.00;99.90;;;;;;5023954;28;20056;-62
2022/12/13 10:01:51;;;;;;;0.85;0.85;;;0.00;99.90;;;;;;5028523;28;20117;-62
2022/12/13 10:04:17;;;;;;;5.15;1.75;;;0.00;99.90;;;;;;5027915;28;20560;-62
2022/12/13 10:06:42;;;;;;;3.92;1.50;;;0.10;99.90;;;;;;5028114;28;20049;-62
2022/12/13 10:09:12;;;;;;;1.25;1.15;;;0.20;99.90;;;;;;5029585;28;20401;-63
2022/12/13 10:11:49;;;;;;;0.77;0.77;;;0.20;99.90;;;;;;5027920;28;20339;-62
2022/12/13 10:14:26;;;;;;;0.45;0.45;;;0.20;99.90;;;;;;5027687;28;20095;-62
2022/12/13 10:16:56;;;;;;;0.20;0.20;;;0.30;99.90;;;;;;5009475;28;20046;-62
2022/12/13 10:19:25;;;;;;;0.45;0.45;;;0.40;99.90;;;;;;5011969;28;20487;-63
2022/12/13 10:21:51;;;;;;;2.22;1.55;;;0.40;99.90;;;;;;5021534;28;20034;-63
2022/12/13 10:24:29;;;;;;;0.30;0.30;;;0.40;99.90;;;;;;5009573;28;20060;-63
2022/12/13 10:26:59;;;;;;;0.60;0.60;;;0.40;99.90;;;;;;5026025;28;20037;-63
2022/12/13 10:29:25;;;;;;;0.30;0.30;;;0.50;99.90;;;;;;5016298;28;20512;-63
2022/12/13 10:31:51;;;;;;;3.90;1.42;;;0.40;99.90;;;;;;5027426;28;20041;-63
2022/12/13 10:34:29;;;;;;;2.03;1.90;;;0.40;99.90;;;;;;5026530;28;20396;-63
2022/12/13 10:36:55;;;;;;;2.65;1.30;;;0.50;99.90;;;;;;5027138;28;20029;-64
2022/12/13 10:39:41;;;;;;;0.68;0.50;;;0.50;99.90;;;;;;5027538;28;20045;-63
2022/12/13 10:42:15;;;;;;;1.05;1.05;;;0.50;99.90;;;;;;5024166;28;20480;-63
2022/12/13 10:44:41;;;;;;;1.10;1.10;;;0.50;99.90;;;;;;5025821;28;20133;-64
2022/12/13 10:47:09;;;;;;;0.45;0.45;;;0.50;99.90;;;;;;5026486;28;20051;-63
2022/12/13 10:49:58;;;;;;;1.58;1.48;;;0.60;99.90;;;;;;5027043;28;20115;-64
2022/12/13 10:52:34;;;;;;;1.45;1.35;;;0.60;99.90;;;;;;5028607;28;20080;-64
2022/12/13 10:55:26;;;;;;;2.22;2.13;;;0.70;99.90;;;;;;5026540;28;20477;-64
2022/12/13 10:57:54;;;;;;;0.57;0.57;;;0.70;99.90;;;;;;5027971;28;20041;-64
2022/12/13 11:00:38;;;;;;;1.00;1.00;;;0.70;99.90;;;;;;5027133;28;20041;-64
2022/12/13 11:03:05;;;;;;;0.75;0.75;;;0.70;99.90;;;;;;5020734;28;20056;-63
2022/12/13 11:05:33;;;;;;;3.70;1.85;;;0.80;99.90;;;;;;5023427;28;20068;-64
2022/12/13 11:08:25;;;;;;;0.20;0.20;;;0.70;99.90;;;;;;5027937;28;20128;-64
2022/12/13 11:10:59;;;;;;;0.57;0.57;;;0.80;99.90;;;;;;5026812;28;20053;-64
2022/12/13 11:13:40;;;;;;;0.43;0.43;;;0.80;99.90;;;;;;5026759;28;20529;-64
2022/12/13 11:16:36;;;;;;;0.10;0.10;;;0.80;99.90;;;;;;5027527;28;20090;-64
2022/12/13 11:19:07;;;;;;;2.80;1.40;;;0.90;99.90;;;;;;5017015;28;20478;-64
2022/12/13 11:21:36;;;;;;;1.95;1.85;;;0.90;99.90;;;;;;5026337;28;20088;-64
2022/12/13 11:24:06;;;;;;;2.03;1.48;;;0.90;99.90;;;;;;5026452;28;20067;-65
2022/12/13 11:26:36;;;;;;;1.50;1.20;;;0.90;99.90;;;;;;5028172;28;20037;-64
2022/12/13 11:29:08;;;;;;;0.88;0.88;;;0.90;99.90;;;;;;5031694;28;20044;-64
2022/12/13 11:31:57;;;;;;;0.17;0.17;;;1.00;99.90;;;;;;5030467;28;20068;-64
2022/12/13 11:34:37;;;;;;;0.22;0.22;;;1.00;99.90;;;;;;5031262;28;20156;-64
2022/12/13 11:37:21;;;;;;;0.73;0.73;;;1.00;99.90;;;;;;5031778;28;20120;-64
2022/12/13 11:40:20;;;;;;;0.43;0.43;;;1.10;99.90;;;;;;5029743;28;20041;-64
2022/12/13 11:42:52;;;;;;;1.98;1.80;;;1.20;99.90;;;;;;5031105;28;20759;-64
2022/12/13 11:45:40;;;;;;;1.45;1.40;;;1.30;99.90;;;;;;5018178;28;20054;-64
2022/12/13 11:48:09;;;;;;;1.20;1.20;;;1.50;99.90;;;;;;5009474;28;20153;-64
2022/12/13 11:50:45;;;;;;;0.20;0.20;;;1.60;99.90;;;;;;5009084;28;20069;-64
2022/12/13 11:53:47;;;;;;;0.20;0.20;;;1.80;99.90;;;;;;5011046;28;20046;-64
2022/12/13 11:56:20;;;;;;;0.60;0.60;;;2.10;99.90;;;;;;5011383;28;20049;-64
2022/12/13 11:59:01;;;;;;;0.40;0.40;;;2.20;99.90;;;;;;5008856;28;20041;-64
2022/12/13 12:01:35;;;;;;;0.65;0.65;;;2.30;99.90;;;;;;5011408;28;20068;-65
2022/12/13 12:04:12;;;;;;;0.85;0.82;;;2.40;99.90;;;;;;5010764;28;20081;-64
2022/12/13 12:06:45;;;;;;;0.43;0.43;;;2.70;99.90;;;;;;5009999;28;20046;-65
2022/12/13 12:09:17;;;;;;;0.52;0.52;;;3.00;99.90;;;;;;5011557;28;20042;-65
2022/12/13 12:11:49;;;;;;;1.48;0.85;;;3.10;99.90;;;;;;4993089;28;20049;-65
2022/12/13 12:14:30;;;;;;;0.75;0.75;;;3.20;99.90;;;;;;5011785;28;20054;-65
2022/12/13 12:16:59;;;;;;;0.60;0.60;;;3.40;99.90;;;;;;5010761;28;20212;-65
2022/12/13 12:19:33;;;;;;;0.28;0.28;;;3.50;99.90;;;;;;5009464;28;20038;-65
2022/12/13 12:22:22;;;;;;;0.55;0.55;;;3.60;99.90;;;;;;5009020;28;20425;-66
2022/12/13 12:25:17;;;;;;;0.25;0.25;;;3.70;99.90;;;;;;4992550;28;20088;-66
2022/12/13 12:27:54;;;;;;;0.85;0.85;;;3.60;99.90;;;;;;5009733;28;20616;-66
2022/12/13 12:30:33;;;;;;;0.43;0.43;;;3.50;99.90;;;;;;5007031;28;20045;-66
2022/12/13 12:33:05;;;;;;;0.80;0.80;;;3.50;99.90;;;;;;5007735;28;20200;-67
2022/12/13 12:35:50;;;;;;;0.68;0.68;;;3.50;99.90;;;;;;5009954;28;20092;-66
2022/12/13 12:38:43;;;;;;;0.93;0.93;;;3.60;99.90;;;;;;5010580;28;20042;-66
2022/12/13 12:41:23;;;;;;;0.90;0.90;;;3.60;99.90;;;;;;5005536;28;20073;-66
2022/12/13 12:44:12;;;;;;;0.35;0.35;;;3.70;99.90;;;;;;5009704;28;20375;-66
2022/12/13 12:46:47;;;;;;;0.35;0.35;;;3.70;99.90;;;;;;5010466;28;20058;-66
2022/12/13 12:49:45;;;;;;;0.60;0.60;;;3.70;99.90;;;;;;5008803;28;20053;-66
2022/12/13 12:52:43;;;;;;;0.30;0.30;;;3.70;99.90;;;;;;4991513;28;20494;-66
2022/12/13 12:55:25;;;;;;;1.90;1.75;;;3.90;99.90;;;;;;4996783;28;20042;-66
2022/12/13 12:58:09;;;;;;;1.58;1.50;;;4.00;99.90;;;;;;5008897;28;20053;-66
2022/12/13 13:01:04;;;;;;;0.20;0.20;;;4.30;99.90;;;;;;5003953;28;20054;-66
2022/12/13 13:03:34;;;;;;;2.47;1.67;;;4.40;99.90;;;;;;5002092;28;20038;-66
2022/12/13 13:06:04;;;;;;;0.10;0.10;;;4.50;99.90;;;;;;5010721;28;20081;-66
2022/12/13 13:08:57;;;;;;;0.63;0.63;;;4.70;99.90;;;;;;5008883;28;20072;-66